sensor_id;sensor_type;location;lat;lon;timestamp;P1;durP1;ratioP1;P2;durP2;ratioP2
22160;SDS011;49035;48.812;11.762;2023-07-31T00:00:07;5.32;;;2.13;;
22160;SDS011;49035;48.812;11.762;2023-07-31T00:02:36;8.30;;;2.50;;
22160;SDS011;49035;48.812;11.762;2023-07-31T00:05:01;3.83;;;2.33;;
22160;SDS011;49035;48.812;11.762;2023-07-31T00:07:27;4.97;;;2.90;;
22160;SDS011;49035;48.812;11.762;2023-07-31T00:09:53;4.03;;;2.53;;
22160;SDS011;49035;48.812;11.762;2023-07-31T00:12:19;9.00;;;2.65;;
22160;SDS011;49035;48.812;11.762;2023-07-31T00:14:45;5.90;;;2.50;;
22160;SDS011;49035;48.812;11.762;2023-07-31T00:17:11;5.07;;;2.43;;
22160;SDS011;49035;48.812;11.762;2023-07-31T00:19:37;4.33;;;3.00;;
22160;SDS011;49035;48.812;11.762;2023-07-31T00:22:02;6.60;;;2.73;;
22160;SDS011;49035;48.812;11.762;2023-07-31T00:24:28;5.80;;;3.17;;
22160;SDS011;49035;48.812;11.762;2023-07-31T00:26:54;3.87;;;2.90;;
22160;SDS011;49035;48.812;11.762;2023-07-31T00:29:19;5.80;;;2.80;;
22160;SDS011;49035;48.812;11.762;2023-07-31T00:31:45;4.10;;;2.60;;
22160;SDS011;49035;48.812;11.762;2023-07-31T00:34:10;7.23;;;2.70;;
22160;SDS011;49035;48.812;11.762;2023-07-31T00:36:36;6.57;;;2.23;;
22160;SDS011;49035;48.812;11.762;2023-07-31T00:39:01;8.20;;;2.97;;
22160;SDS011;49035;48.812;11.762;2023-07-31T00:41:27;4.97;;;2.50;;
22160;SDS011;49035;48.812;11.762;2023-07-31T00:43:53;7.20;;;2.43;;
22160;SDS011;49035;48.812;11.762;2023-07-31T00:46:18;7.70;;;2.70;;
22160;SDS011;49035;48.812;11.762;2023-07-31T00:48:44;6.23;;;2.67;;
22160;SDS011;49035;48.812;11.762;2023-07-31T00:51:10;4.97;;;3.00;;
22160;SDS011;49035;48.812;11.762;2023-07-31T00:53:36;13.15;;;2.97;;
22160;SDS011;49035;48.812;11.762;2023-07-31T00:56:03;6.00;;;2.90;;
22160;SDS011;49035;48.812;11.762;2023-07-31T00:58:29;4.80;;;3.03;;
22160;SDS011;49035;48.812;11.762;2023-07-31T01:00:55;6.30;;;3.40;;
22160;SDS011;49035;48.812;11.762;2023-07-31T01:03:21;3.87;;;2.80;;
22160;SDS011;49035;48.812;11.762;2023-07-31T01:08:31;6.73;;;3.23;;
22160;SDS011;49035;48.812;11.762;2023-07-31T01:11:09;8.55;;;3.15;;
22160;SDS011;49035;48.812;11.762;2023-07-31T01:13:42;4.77;;;3.17;;
22160;SDS011;49035;48.812;11.762;2023-07-31T01:16:09;4.80;;;3.17;;
22160;SDS011;49035;48.812;11.762;2023-07-31T01:18:34;7.67;;;3.53;;
22160;SDS011;49035;48.812;11.762;2023-07-31T01:21:03;4.43;;;3.70;;
22160;SDS011;49035;48.812;11.762;2023-07-31T01:23:58;6.93;;;3.80;;
22160;SDS011;49035;48.812;11.762;2023-07-31T01:26:34;5.33;;;3.50;;
22160;SDS011;49035;48.812;11.762;2023-07-31T01:29:01;7.50;;;4.27;;
22160;SDS011;49035;48.812;11.762;2023-07-31T01:31:42;9.30;;;5.00;;
22160;SDS011;49035;48.812;11.762;2023-07-31T01:34:12;4.90;;;3.50;;
22160;SDS011;49035;48.812;11.762;2023-07-31T01:36:41;8.57;;;4.20;;
22160;SDS011;49035;48.812;11.762;2023-07-31T01:39:06;4.97;;;3.80;;
22160;SDS011;49035;48.812;11.762;2023-07-31T01:41:32;7.87;;;3.80;;
22160;SDS011;49035;48.812;11.762;2023-07-31T01:43:57;5.37;;;3.30;;
22160;SDS011;49035;48.812;11.762;2023-07-31T01:46:23;5.03;;;3.10;;
22160;SDS011;49035;48.812;11.762;2023-07-31T01:48:49;6.17;;;3.13;;
22160;SDS011;49035;48.812;11.762;2023-07-31T01:51:14;5.10;;;3.30;;
22160;SDS011;49035;48.812;11.762;2023-07-31T01:53:40;5.20;;;3.00;;
22160;SDS011;49035;48.812;11.762;2023-07-31T01:56:05;10.07;;;3.10;;
22160;SDS011;49035;48.812;11.762;2023-07-31T01:58:31;5.87;;;3.63;;
22160;SDS011;49035;48.812;11.762;2023-07-31T02:00:56;12.30;;;3.93;;
22160;SDS011;49035;48.812;11.762;2023-07-31T02:03:22;5.80;;;3.13;;
22160;SDS011;49035;48.812;11.762;2023-07-31T02:05:48;8.77;;;3.53;;
22160;SDS011;49035;48.812;11.762;2023-07-31T02:08:15;3.20;;;2.67;;
22160;SDS011;49035;48.812;11.762;2023-07-31T02:10:40;5.63;;;3.00;;
22160;SDS011;49035;48.812;11.762;2023-07-31T02:13:06;6.50;;;3.17;;
22160;SDS011;49035;48.812;11.762;2023-07-31T02:15:32;4.40;;;3.23;;
22160;SDS011;49035;48.812;11.762;2023-07-31T02:17:57;5.23;;;3.30;;
22160;SDS011;49035;48.812;11.762;2023-07-31T02:20:23;5.07;;;3.20;;
22160;SDS011;49035;48.812;11.762;2023-07-31T02:22:49;5.93;;;3.43;;
22160;SDS011;49035;48.812;11.762;2023-07-31T02:25:15;7.47;;;3.30;;
22160;SDS011;49035;48.812;11.762;2023-07-31T02:27:40;4.30;;;2.90;;
22160;SDS011;49035;48.812;11.762;2023-07-31T02:30:06;3.70;;;3.10;;
22160;SDS011;49035;48.812;11.762;2023-07-31T02:32:32;6.73;;;3.50;;
22160;SDS011;49035;48.812;11.762;2023-07-31T02:34:57;5.87;;;3.37;;
22160;SDS011;49035;48.812;11.762;2023-07-31T02:37:23;3.90;;;3.30;;
22160;SDS011;49035;48.812;11.762;2023-07-31T02:39:50;4.90;;;4.00;;
22160;SDS011;49035;48.812;11.762;2023-07-31T02:42:15;8.43;;;3.67;;
22160;SDS011;49035;48.812;11.762;2023-07-31T02:44:41;4.97;;;3.63;;
22160;SDS011;49035;48.812;11.762;2023-07-31T02:47:06;4.43;;;3.10;;
22160;SDS011;49035;48.812;11.762;2023-07-31T02:49:32;5.80;;;3.03;;
22160;SDS011;49035;48.812;11.762;2023-07-31T02:51:57;3.43;;;2.87;;
22160;SDS011;49035;48.812;11.762;2023-07-31T02:54:23;4.47;;;3.00;;
22160;SDS011;49035;48.812;11.762;2023-07-31T02:56:48;6.77;;;3.03;;
22160;SDS011;49035;48.812;11.762;2023-07-31T02:59:14;4.43;;;3.40;;
22160;SDS011;49035;48.812;11.762;2023-07-31T03:01:40;4.57;;;3.33;;
22160;SDS011;49035;48.812;11.762;2023-07-31T03:04:07;3.97;;;3.20;;
22160;SDS011;49035;48.812;11.762;2023-07-31T03:06:32;7.77;;;3.87;;
22160;SDS011;49035;48.812;11.762;2023-07-31T03:08:58;7.00;;;3.60;;
22160;SDS011;49035;48.812;11.762;2023-07-31T03:11:23;5.00;;;3.40;;
22160;SDS011;49035;48.812;11.762;2023-07-31T03:13:49;6.83;;;3.40;;
22160;SDS011;49035;48.812;11.762;2023-07-31T03:16:15;3.80;;;3.20;;
22160;SDS011;49035;48.812;11.762;2023-07-31T03:18:40;3.60;;;3.00;;
22160;SDS011;49035;48.812;11.762;2023-07-31T03:21:06;4.97;;;3.30;;
22160;SDS011;49035;48.812;11.762;2023-07-31T03:23:31;5.00;;;3.27;;
22160;SDS011;49035;48.812;11.762;2023-07-31T03:28:23;7.40;;;3.53;;
22160;SDS011;49035;48.812;11.762;2023-07-31T03:30:49;6.30;;;3.13;;
22160;SDS011;49035;48.812;11.762;2023-07-31T03:33:16;4.37;;;3.23;;
22160;SDS011;49035;48.812;11.762;2023-07-31T03:35:41;5.50;;;3.93;;
22160;SDS011;49035;48.812;11.762;2023-07-31T03:38:07;6.50;;;3.60;;
22160;SDS011;49035;48.812;11.762;2023-07-31T03:40:32;4.93;;;3.30;;
22160;SDS011;49035;48.812;11.762;2023-07-31T03:42:58;5.43;;;3.00;;
22160;SDS011;49035;48.812;11.762;2023-07-31T03:45:23;5.57;;;3.40;;
22160;SDS011;49035;48.812;11.762;2023-07-31T03:47:49;4.53;;;3.37;;
22160;SDS011;49035;48.812;11.762;2023-07-31T03:50:14;5.57;;;3.60;;
22160;SDS011;49035;48.812;11.762;2023-07-31T03:52:41;7.47;;;3.53;;
22160;SDS011;49035;48.812;11.762;2023-07-31T03:55:06;4.83;;;3.67;;
22160;SDS011;49035;48.812;11.762;2023-07-31T03:57:32;6.60;;;4.50;;
22160;SDS011;49035;48.812;11.762;2023-07-31T03:59:58;7.17;;;2.97;;
22160;SDS011;49035;48.812;11.762;2023-07-31T04:02:24;7.00;;;3.57;;
22160;SDS011;49035;48.812;11.762;2023-07-31T04:04:49;5.97;;;3.77;;
22160;SDS011;49035;48.812;11.762;2023-07-31T04:07:15;6.53;;;3.83;;
22160;SDS011;49035;48.812;11.762;2023-07-31T04:09:40;6.10;;;3.83;;
22160;SDS011;49035;48.812;11.762;2023-07-31T04:12:06;4.67;;;3.70;;
22160;SDS011;49035;48.812;11.762;2023-07-31T04:14:32;5.67;;;3.57;;
22160;SDS011;49035;48.812;11.762;2023-07-31T04:16:57;8.80;;;4.43;;
22160;SDS011;49035;48.812;11.762;2023-07-31T04:19:23;7.30;;;4.00;;
22160;SDS011;49035;48.812;11.762;2023-07-31T04:21:49;6.97;;;4.40;;
22160;SDS011;49035;48.812;11.762;2023-07-31T04:24:15;9.93;;;5.63;;
22160;SDS011;49035;48.812;11.762;2023-07-31T04:26:40;9.17;;;6.53;;
22160;SDS011;49035;48.812;11.762;2023-07-31T04:29:06;13.93;;;6.47;;
22160;SDS011;49035;48.812;11.762;2023-07-31T04:31:33;9.43;;;6.60;;
22160;SDS011;49035;48.812;11.762;2023-07-31T04:33:59;12.37;;;6.90;;
22160;SDS011;49035;48.812;11.762;2023-07-31T04:36:24;13.02;;;6.53;;
22160;SDS011;49035;48.812;11.762;2023-07-31T04:38:50;9.52;;;6.43;;
22160;SDS011;49035;48.812;11.762;2023-07-31T04:41:15;7.72;;;6.45;;
22160;SDS011;49035;48.812;11.762;2023-07-31T04:43:41;13.32;;;6.18;;
22160;SDS011;49035;48.812;11.762;2023-07-31T04:46:07;6.95;;;4.30;;
22160;SDS011;49035;48.812;11.762;2023-07-31T04:48:32;4.18;;;3.47;;
22160;SDS011;49035;48.812;11.762;2023-07-31T04:50:58;3.88;;;2.97;;
22160;SDS011;49035;48.812;11.762;2023-07-31T04:53:23;10.35;;;3.10;;
22160;SDS011;49035;48.812;11.762;2023-07-31T04:55:49;4.20;;;2.88;;
22160;SDS011;49035;48.812;11.762;2023-07-31T04:58:14;4.22;;;2.83;;
22160;SDS011;49035;48.812;11.762;2023-07-31T05:00:40;3.92;;;2.60;;
22160;SDS011;49035;48.812;11.762;2023-07-31T05:03:06;2.92;;;2.42;;
22160;SDS011;49035;48.812;11.762;2023-07-31T05:05:32;7.13;;;2.92;;
22160;SDS011;49035;48.812;11.762;2023-07-31T05:07:57;3.38;;;2.33;;
22160;SDS011;49035;48.812;11.762;2023-07-31T05:10:23;2.45;;;2.25;;
22160;SDS011;49035;48.812;11.762;2023-07-31T05:12:49;8.35;;;2.10;;
22160;SDS011;49035;48.812;11.762;2023-07-31T05:15:14;2.50;;;1.70;;
22160;SDS011;49035;48.812;11.762;2023-07-31T05:17:40;2.42;;;1.92;;
22160;SDS011;49035;48.812;11.762;2023-07-31T05:20:06;5.93;;;1.90;;
22160;SDS011;49035;48.812;11.762;2023-07-31T05:22:32;3.83;;;1.77;;
22160;SDS011;49035;48.812;11.762;2023-07-31T05:24:57;4.13;;;1.60;;
22160;SDS011;49035;48.812;11.762;2023-07-31T05:27:23;3.33;;;2.00;;
22160;SDS011;49035;48.812;11.762;2023-07-31T05:29:49;7.35;;;1.90;;
22160;SDS011;49035;48.812;11.762;2023-07-31T05:32:14;5.22;;;1.73;;
22160;SDS011;49035;48.812;11.762;2023-07-31T05:34:40;3.47;;;1.77;;
22160;SDS011;49035;48.812;11.762;2023-07-31T05:37:05;6.25;;;1.90;;
22160;SDS011;49035;48.812;11.762;2023-07-31T05:39:31;2.72;;;1.80;;
22160;SDS011;49035;48.812;11.762;2023-07-31T05:41:57;3.88;;;2.00;;
22160;SDS011;49035;48.812;11.762;2023-07-31T05:44:22;4.32;;;1.65;;
22160;SDS011;49035;48.812;11.762;2023-07-31T05:46:48;3.45;;;1.63;;
22160;SDS011;49035;48.812;11.762;2023-07-31T05:49:13;3.00;;;1.73;;
22160;SDS011;49035;48.812;11.762;2023-07-31T05:51:39;3.67;;;1.58;;
22160;SDS011;49035;48.812;11.762;2023-07-31T05:54:04;3.92;;;1.67;;
22160;SDS011;49035;48.812;11.762;2023-07-31T05:56:30;2.30;;;1.40;;
22160;SDS011;49035;48.812;11.762;2023-07-31T05:58:56;5.25;;;1.70;;
22160;SDS011;49035;48.812;11.762;2023-07-31T06:01:22;3.70;;;1.55;;
22160;SDS011;49035;48.812;11.762;2023-07-31T06:03:47;3.55;;;1.80;;
22160;SDS011;49035;48.812;11.762;2023-07-31T06:06:13;3.55;;;1.90;;
22160;SDS011;49035;48.812;11.762;2023-07-31T06:08:39;2.25;;;1.60;;
22160;SDS011;49035;48.812;11.762;2023-07-31T06:11:05;2.55;;;1.50;;
22160;SDS011;49035;48.812;11.762;2023-07-31T06:13:30;2.10;;;1.50;;
22160;SDS011;49035;48.812;11.762;2023-07-31T06:15:56;4.72;;;1.50;;
22160;SDS011;49035;48.812;11.762;2023-07-31T06:18:22;1.95;;;1.30;;
22160;SDS011;49035;48.812;11.762;2023-07-31T06:20:47;1.77;;;1.52;;
22160;SDS011;49035;48.812;11.762;2023-07-31T06:23:18;7.22;;;1.77;;
22160;SDS011;49035;48.812;11.762;2023-07-31T06:25:44;2.50;;;1.63;;
22160;SDS011;49035;48.812;11.762;2023-07-31T06:28:09;6.55;;;1.70;;
22160;SDS011;49035;48.812;11.762;2023-07-31T06:30:35;2.63;;;1.77;;
22160;SDS011;49035;48.812;11.762;2023-07-31T06:33:01;3.22;;;1.65;;
22160;SDS011;49035;48.812;11.762;2023-07-31T06:35:26;3.65;;;1.70;;
22160;SDS011;49035;48.812;11.762;2023-07-31T06:37:52;2.83;;;1.40;;
22160;SDS011;49035;48.812;11.762;2023-07-31T06:40:17;3.33;;;1.65;;
22160;SDS011;49035;48.812;11.762;2023-07-31T06:42:44;3.25;;;1.90;;
22160;SDS011;49035;48.812;11.762;2023-07-31T06:45:10;2.92;;;1.85;;
22160;SDS011;49035;48.812;11.762;2023-07-31T06:47:35;3.88;;;2.13;;
22160;SDS011;49035;48.812;11.762;2023-07-31T06:50:01;2.72;;;1.80;;
22160;SDS011;49035;48.812;11.762;2023-07-31T06:52:27;4.13;;;1.92;;
22160;SDS011;49035;48.812;11.762;2023-07-31T06:57:47;3.90;;;1.55;;
22160;SDS011;49035;48.812;11.762;2023-07-31T07:00:14;3.47;;;1.80;;
22160;SDS011;49035;48.812;11.762;2023-07-31T07:02:40;5.97;;;2.25;;
22160;SDS011;49035;48.812;11.762;2023-07-31T07:05:07;2.38;;;1.65;;
22160;SDS011;49035;48.812;11.762;2023-07-31T07:07:33;5.38;;;1.80;;
22160;SDS011;49035;48.812;11.762;2023-07-31T07:09:59;7.15;;;2.15;;
22160;SDS011;49035;48.812;11.762;2023-07-31T07:12:25;4.22;;;1.92;;
22160;SDS011;49035;48.812;11.762;2023-07-31T07:14:51;9.38;;;1.90;;
22160;SDS011;49035;48.812;11.762;2023-07-31T07:17:18;4.55;;;1.77;;
22160;SDS011;49035;48.812;11.762;2023-07-31T07:19:44;5.53;;;1.58;;
22160;SDS011;49035;48.812;11.762;2023-07-31T07:22:10;3.47;;;1.77;;
22160;SDS011;49035;48.812;11.762;2023-07-31T07:24:36;2.15;;;1.58;;
22160;SDS011;49035;48.812;11.762;2023-07-31T07:27:02;4.50;;;1.65;;
22160;SDS011;49035;48.812;11.762;2023-07-31T07:29:28;3.90;;;1.80;;
22160;SDS011;49035;48.812;11.762;2023-07-31T07:31:53;3.78;;;1.60;;
22160;SDS011;49035;48.812;11.762;2023-07-31T07:34:19;1.90;;;1.67;;
22160;SDS011;49035;48.812;11.762;2023-07-31T07:36:47;4.15;;;1.70;;
22160;SDS011;49035;48.812;11.762;2023-07-31T07:39:13;2.80;;;1.88;;
22160;SDS011;49035;48.812;11.762;2023-07-31T07:41:39;2.25;;;1.75;;
22160;SDS011;49035;48.812;11.762;2023-07-31T07:44:05;4.78;;;2.10;;
22160;SDS011;49035;48.812;11.762;2023-07-31T07:46:30;1.60;;;1.48;;
22160;SDS011;49035;48.812;11.762;2023-07-31T07:48:56;5.22;;;2.45;;
22160;SDS011;49035;48.812;11.762;2023-07-31T07:51:21;2.83;;;1.70;;
22160;SDS011;49035;48.812;11.762;2023-07-31T07:53:47;3.05;;;1.70;;
22160;SDS011;49035;48.812;11.762;2023-07-31T07:56:12;6.47;;;1.73;;
22160;SDS011;49035;48.812;11.762;2023-07-31T07:58:38;3.60;;;1.80;;
22160;SDS011;49035;48.812;11.762;2023-07-31T08:01:04;3.97;;;1.85;;
22160;SDS011;49035;48.812;11.762;2023-07-31T08:03:29;4.95;;;1.83;;
22160;SDS011;49035;48.812;11.762;2023-07-31T08:06:01;2.05;;;1.58;;
22160;SDS011;49035;48.812;11.762;2023-07-31T08:08:29;4.05;;;1.60;;
22160;SDS011;49035;48.812;11.762;2023-07-31T08:10:55;3.60;;;1.55;;
22160;SDS011;49035;48.812;11.762;2023-07-31T08:13:21;2.38;;;1.63;;
22160;SDS011;49035;48.812;11.762;2023-07-31T08:15:46;3.55;;;1.90;;
22160;SDS011;49035;48.812;11.762;2023-07-31T08:18:12;2.88;;;2.03;;
22160;SDS011;49035;48.812;11.762;2023-07-31T08:20:37;4.03;;;2.15;;
22160;SDS011;49035;48.812;11.762;2023-07-31T08:23:03;4.80;;;2.33;;
22160;SDS011;49035;48.812;11.762;2023-07-31T08:25:29;3.70;;;1.98;;
22160;SDS011;49035;48.812;11.762;2023-07-31T08:27:55;3.55;;;1.90;;
22160;SDS011;49035;48.812;11.762;2023-07-31T08:30:21;4.63;;;2.00;;
22160;SDS011;49035;48.812;11.762;2023-07-31T08:32:46;6.18;;;2.28;;
22160;SDS011;49035;48.812;11.762;2023-07-31T08:35:12;4.55;;;1.95;;
22160;SDS011;49035;48.812;11.762;2023-07-31T08:37:38;3.17;;;2.00;;
22160;SDS011;49035;48.812;11.762;2023-07-31T08:40:04;5.25;;;1.90;;
22160;SDS011;49035;48.812;11.762;2023-07-31T08:42:30;3.45;;;1.85;;
22160;SDS011;49035;48.812;11.762;2023-07-31T08:44:57;3.67;;;1.58;;
22160;SDS011;49035;48.812;11.762;2023-07-31T08:47:25;4.57;;;2.03;;
22160;SDS011;49035;48.812;11.762;2023-07-31T08:49:51;6.35;;;2.13;;
22160;SDS011;49035;48.812;11.762;2023-07-31T08:52:18;4.18;;;2.13;;
22160;SDS011;49035;48.812;11.762;2023-07-31T08:54:44;4.55;;;1.98;;
22160;SDS011;49035;48.812;11.762;2023-07-31T08:57:10;6.35;;;2.30;;
22160;SDS011;49035;48.812;11.762;2023-07-31T08:59:36;3.58;;;1.95;;
22160;SDS011;49035;48.812;11.762;2023-07-31T09:02:07;7.43;;;2.13;;
22160;SDS011;49035;48.812;11.762;2023-07-31T09:04:33;3.88;;;2.08;;
22160;SDS011;49035;48.812;11.762;2023-07-31T09:07:00;4.80;;;2.28;;
22160;SDS011;49035;48.812;11.762;2023-07-31T09:09:28;5.35;;;2.00;;
22160;SDS011;49035;48.812;11.762;2023-07-31T09:11:54;5.18;;;1.67;;
22160;SDS011;49035;48.812;11.762;2023-07-31T09:14:20;6.05;;;1.83;;
22160;SDS011;49035;48.812;11.762;2023-07-31T09:16:58;3.88;;;2.00;;
22160;SDS011;49035;48.812;11.762;2023-07-31T09:19:28;3.97;;;1.67;;
22160;SDS011;49035;48.812;11.762;2023-07-31T09:21:58;5.65;;;1.88;;
22160;SDS011;49035;48.812;11.762;2023-07-31T09:24:27;4.15;;;2.00;;
22160;SDS011;49035;48.812;11.762;2023-07-31T09:26:54;5.00;;;1.70;;
22160;SDS011;49035;48.812;11.762;2023-07-31T09:29:23;3.65;;;1.73;;
22160;SDS011;49035;48.812;11.762;2023-07-31T09:31:51;5.68;;;2.25;;
22160;SDS011;49035;48.812;11.762;2023-07-31T09:34:17;4.18;;;2.40;;
22160;SDS011;49035;48.812;11.762;2023-07-31T09:36:43;5.05;;;2.40;;
22160;SDS011;49035;48.812;11.762;2023-07-31T09:39:13;9.32;;;2.97;;
22160;SDS011;49035;48.812;11.762;2023-07-31T09:41:44;5.60;;;2.97;;
22160;SDS011;49035;48.812;11.762;2023-07-31T09:44:12;6.65;;;3.15;;
22160;SDS011;49035;48.812;11.762;2023-07-31T09:46:38;5.47;;;2.65;;
22160;SDS011;49035;48.812;11.762;2023-07-31T09:49:05;2.80;;;2.00;;
22160;SDS011;49035;48.812;11.762;2023-07-31T09:51:34;5.47;;;2.25;;
22160;SDS011;49035;48.812;11.762;2023-07-31T09:54:04;4.95;;;2.90;;
22160;SDS011;49035;48.812;11.762;2023-07-31T09:56:46;8.10;;;2.90;;
22160;SDS011;49035;48.812;11.762;2023-07-31T09:59:13;4.63;;;2.25;;
22160;SDS011;49035;48.812;11.762;2023-07-31T10:01:45;4.22;;;2.20;;
22160;SDS011;49035;48.812;11.762;2023-07-31T10:04:12;2.85;;;1.83;;
22160;SDS011;49035;48.812;11.762;2023-07-31T10:06:39;5.90;;;2.33;;
22160;SDS011;49035;48.812;11.762;2023-07-31T10:09:09;3.72;;;1.95;;
22160;SDS011;49035;48.812;11.762;2023-07-31T10:11:43;4.30;;;2.20;;
22160;SDS011;49035;48.812;11.762;2023-07-31T10:14:20;6.70;;;2.17;;
22160;SDS011;49035;48.812;11.762;2023-07-31T10:16:48;3.30;;;1.50;;
22160;SDS011;49035;48.812;11.762;2023-07-31T10:19:15;5.63;;;1.60;;
22160;SDS011;49035;48.812;11.762;2023-07-31T10:21:42;2.83;;;1.65;;
22160;SDS011;49035;48.812;11.762;2023-07-31T10:24:09;4.13;;;1.67;;
22160;SDS011;49035;48.812;11.762;2023-07-31T10:26:34;5.88;;;1.90;;
22160;SDS011;49035;48.812;11.762;2023-07-31T10:29:02;3.20;;;1.60;;
22160;SDS011;49035;48.812;11.762;2023-07-31T10:31:29;2.95;;;1.60;;
22160;SDS011;49035;48.812;11.762;2023-07-31T10:33:56;3.47;;;1.35;;
22160;SDS011;49035;48.812;11.762;2023-07-31T10:36:24;3.92;;;1.60;;
22160;SDS011;49035;48.812;11.762;2023-07-31T10:38:50;3.60;;;1.58;;
22160;SDS011;49035;48.812;11.762;2023-07-31T10:41:16;4.40;;;1.80;;
22160;SDS011;49035;48.812;11.762;2023-07-31T10:43:42;2.63;;;1.60;;
22160;SDS011;49035;48.812;11.762;2023-07-31T10:46:14;3.25;;;1.98;;
22160;SDS011;49035;48.812;11.762;2023-07-31T10:48:40;3.35;;;1.40;;
22160;SDS011;49035;48.812;11.762;2023-07-31T10:51:07;3.05;;;1.77;;
22160;SDS011;49035;48.812;11.762;2023-07-31T10:53:37;3.33;;;1.63;;
22160;SDS011;49035;48.812;11.762;2023-07-31T10:56:08;3.17;;;1.63;;
22160;SDS011;49035;48.812;11.762;2023-07-31T10:58:39;3.22;;;1.58;;
22160;SDS011;49035;48.812;11.762;2023-07-31T11:01:05;3.22;;;1.40;;
22160;SDS011;49035;48.812;11.762;2023-07-31T11:03:41;5.78;;;2.10;;
22160;SDS011;49035;48.812;11.762;2023-07-31T11:06:12;5.13;;;2.05;;
22160;SDS011;49035;48.812;11.762;2023-07-31T11:08:42;4.47;;;1.63;;
22160;SDS011;49035;48.812;11.762;2023-07-31T11:11:10;4.22;;;1.92;;
22160;SDS011;49035;48.812;11.762;2023-07-31T11:16:06;3.20;;;1.58;;
22160;SDS011;49035;48.812;11.762;2023-07-31T11:18:32;2.30;;;1.50;;
22160;SDS011;49035;48.812;11.762;2023-07-31T11:20:58;4.00;;;1.65;;
22160;SDS011;49035;48.812;11.762;2023-07-31T11:23:23;3.75;;;1.85;;
22160;SDS011;49035;48.812;11.762;2023-07-31T11:25:49;3.33;;;1.98;;
22160;SDS011;49035;48.812;11.762;2023-07-31T11:28:16;6.43;;;1.70;;
22160;SDS011;49035;48.812;11.762;2023-07-31T11:30:43;3.53;;;1.63;;
22160;SDS011;49035;48.812;11.762;2023-07-31T11:33:10;2.55;;;1.65;;
22160;SDS011;49035;48.812;11.762;2023-07-31T11:35:47;4.85;;;1.88;;
22160;SDS011;49035;48.812;11.762;2023-07-31T11:38:30;3.20;;;1.50;;
22160;SDS011;49035;48.812;11.762;2023-07-31T11:40:57;3.47;;;1.90;;
22160;SDS011;49035;48.812;11.762;2023-07-31T11:43:27;2.38;;;1.50;;
22160;SDS011;49035;48.812;11.762;2023-07-31T11:46:00;4.05;;;1.50;;
22160;SDS011;49035;48.812;11.762;2023-07-31T11:48:30;4.13;;;1.88;;
22160;SDS011;49035;48.812;11.762;2023-07-31T11:51:01;3.35;;;1.60;;
22160;SDS011;49035;48.812;11.762;2023-07-31T11:53:31;4.22;;;1.55;;
22160;SDS011;49035;48.812;11.762;2023-07-31T11:55:59;4.18;;;1.50;;
22160;SDS011;49035;48.812;11.762;2023-07-31T11:58:25;2.65;;;1.73;;
22160;SDS011;49035;48.812;11.762;2023-07-31T12:00:52;3.40;;;1.63;;
22160;SDS011;49035;48.812;11.762;2023-07-31T12:03:18;5.22;;;1.80;;
22160;SDS011;49035;48.812;11.762;2023-07-31T12:05:46;4.15;;;1.98;;
22160;SDS011;49035;48.812;11.762;2023-07-31T12:08:13;6.25;;;1.95;;
22160;SDS011;49035;48.812;11.762;2023-07-31T12:10:39;5.05;;;1.48;;
22160;SDS011;49035;48.812;11.762;2023-07-31T12:13:10;2.63;;;1.50;;
22160;SDS011;49035;48.812;11.762;2023-07-31T12:15:42;4.03;;;1.55;;
22160;SDS011;49035;48.812;11.762;2023-07-31T12:18:12;2.85;;;1.80;;
22160;SDS011;49035;48.812;11.762;2023-07-31T12:20:43;3.85;;;1.85;;
22160;SDS011;49035;48.812;11.762;2023-07-31T12:23:13;5.50;;;1.70;;
22160;SDS011;49035;48.812;11.762;2023-07-31T12:25:43;3.15;;;1.55;;
22160;SDS011;49035;48.812;11.762;2023-07-31T12:28:09;3.13;;;1.50;;
22160;SDS011;49035;48.812;11.762;2023-07-31T12:30:39;7.07;;;1.58;;
22160;SDS011;49035;48.812;11.762;2023-07-31T12:33:14;2.85;;;1.65;;
22160;SDS011;49035;48.812;11.762;2023-07-31T12:35:41;3.80;;;1.83;;
22160;SDS011;49035;48.812;11.762;2023-07-31T12:38:09;2.83;;;1.40;;
22160;SDS011;49035;48.812;11.762;2023-07-31T12:40:36;2.30;;;1.55;;
22160;SDS011;49035;48.812;11.762;2023-07-31T12:43:04;5.65;;;1.45;;
22160;SDS011;49035;48.812;11.762;2023-07-31T12:45:30;2.28;;;1.65;;
22160;SDS011;49035;48.812;11.762;2023-07-31T12:47:56;2.83;;;1.60;;
22160;SDS011;49035;48.812;11.762;2023-07-31T12:50:22;3.97;;;1.65;;
22160;SDS011;49035;48.812;11.762;2023-07-31T12:52:48;4.43;;;1.60;;
22160;SDS011;49035;48.812;11.762;2023-07-31T12:55:14;3.10;;;1.67;;
22160;SDS011;49035;48.812;11.762;2023-07-31T12:57:40;3.65;;;1.60;;
22160;SDS011;49035;48.812;11.762;2023-07-31T13:00:07;4.78;;;1.65;;
22160;SDS011;49035;48.812;11.762;2023-07-31T13:02:33;4.70;;;1.85;;
22160;SDS011;49035;48.812;11.762;2023-07-31T13:04:58;3.45;;;1.88;;
22160;SDS011;49035;48.812;11.762;2023-07-31T13:07:24;5.93;;;1.55;;
22160;SDS011;49035;48.812;11.762;2023-07-31T13:09:50;4.10;;;1.80;;
22160;SDS011;49035;48.812;11.762;2023-07-31T13:12:16;3.40;;;1.63;;
22160;SDS011;49035;48.812;11.762;2023-07-31T13:14:41;5.00;;;1.70;;
22160;SDS011;49035;48.812;11.762;2023-07-31T13:17:07;3.63;;;1.77;;
22160;SDS011;49035;48.812;11.762;2023-07-31T13:19:33;4.05;;;1.50;;
22160;SDS011;49035;48.812;11.762;2023-07-31T13:21:58;3.75;;;1.90;;
22160;SDS011;49035;48.812;11.762;2023-07-31T13:24:24;3.92;;;1.90;;
22160;SDS011;49035;48.812;11.762;2023-07-31T13:26:49;3.65;;;1.60;;
22160;SDS011;49035;48.812;11.762;2023-07-31T13:29:15;2.42;;;1.50;;
22160;SDS011;49035;48.812;11.762;2023-07-31T13:31:40;2.95;;;1.70;;
22160;SDS011;49035;48.812;11.762;2023-07-31T13:34:06;3.58;;;2.50;;
22160;SDS011;49035;48.812;11.762;2023-07-31T13:36:32;4.50;;;3.20;;
22160;SDS011;49035;48.812;11.762;2023-07-31T13:38:59;5.40;;;3.75;;
22160;SDS011;49035;48.812;11.762;2023-07-31T13:41:24;5.30;;;3.17;;
22160;SDS011;49035;48.812;11.762;2023-07-31T13:43:50;5.63;;;2.13;;
22160;SDS011;49035;48.812;11.762;2023-07-31T13:46:16;4.93;;;2.15;;
22160;SDS011;49035;48.812;11.762;2023-07-31T13:48:41;4.15;;;2.00;;
22160;SDS011;49035;48.812;11.762;2023-07-31T13:51:07;3.58;;;2.15;;
22160;SDS011;49035;48.812;11.762;2023-07-31T13:53:32;3.97;;;2.10;;
22160;SDS011;49035;48.812;11.762;2023-07-31T13:55:58;5.68;;;2.42;;
22160;SDS011;49035;48.812;11.762;2023-07-31T13:58:23;4.97;;;3.08;;
22160;SDS011;49035;48.812;11.762;2023-07-31T14:00:49;3.63;;;3.00;;
22160;SDS011;49035;48.812;11.762;2023-07-31T14:03:15;4.00;;;2.42;;
22160;SDS011;49035;48.812;11.762;2023-07-31T14:05:41;3.20;;;1.92;;
22160;SDS011;49035;48.812;11.762;2023-07-31T14:08:06;7.18;;;2.40;;
22160;SDS011;49035;48.812;11.762;2023-07-31T14:10:32;6.22;;;2.83;;
22160;SDS011;49035;48.812;11.762;2023-07-31T14:12:57;3.15;;;2.08;;
22160;SDS011;49035;48.812;11.762;2023-07-31T14:15:23;6.35;;;2.15;;
22160;SDS011;49035;48.812;11.762;2023-07-31T14:17:48;4.13;;;1.83;;
22160;SDS011;49035;48.812;11.762;2023-07-31T14:20:14;2.63;;;1.75;;
22160;SDS011;49035;48.812;11.762;2023-07-31T14:22:40;3.40;;;1.60;;
22160;SDS011;49035;48.812;11.762;2023-07-31T14:25:05;4.25;;;2.00;;
22160;SDS011;49035;48.812;11.762;2023-07-31T14:27:31;3.95;;;1.92;;
22160;SDS011;49035;48.812;11.762;2023-07-31T14:29:57;4.05;;;1.95;;
22160;SDS011;49035;48.812;11.762;2023-07-31T14:32:23;2.58;;;1.90;;
22160;SDS011;49035;48.812;11.762;2023-07-31T14:34:50;6.05;;;3.00;;
22160;SDS011;49035;48.812;11.762;2023-07-31T14:37:16;3.85;;;2.17;;
22160;SDS011;49035;48.812;11.762;2023-07-31T14:39:41;4.78;;;2.00;;